Airfield :
LOGIN :

Register | Disclaimer

   EN    FR    IT 

 










Legend :    VFR   Marginal VFR   IFR   Intensive IFR   Very Intensive IFR
Visi :
Ceiling :
>= 8 km
>= 3000ft
5 to 8 km
1000 to 3000 ft
1500m to 5 km
500 to 1000 ft
800 to 1500m
200 to 500 ft
< 800m
< 200 ft
Symbols :   Thunderstorms  Fog  Heavy snow  Heavy precipitations  Wind > 20 kt
SIGMETs :     Misc.  Thunderstorms  Icing  Turbulence  Mountain Waves  Volcanic Ashes







- Airport Elevation : 42 ft
- IATA code : LMO


EGQS - Lossiemouth

CURRENT METAR :
  • 240450Z 25011KT 9999 -SHRA FEW015 SCT020CB BKN100 01/00 Q1001 RESHSN RESHRA WHT

EXPIRED METARs :
  • 240445Z 26010KT 9999 -SHRASN SCT015 BKN020CB 01/00 Q1001 WHT
  • 240422Z 30014G25KT 3000 SHRASN SCT014 BKN020CB 02/00 Q1001 YLO1
  • 240350Z 26013KT 9999 -SHRASN FEW022CB BKN030 BKN100 02/M00 Q1000 BLU
  • 240250Z 25015KT CAVOK 02/M01 Q0999 BLU

TAF TAF EGQS
Valid from the 24 at 06:00 until the 25 at 00:00 UTC


240436Z 2406/2424 26014KT 9999 FEW025 SCT040
PROB30
TEMPO 2406/2424 28015G25KT 3000 SHRASN SCT012 BKN020CB
No reported NOTAMs for that airfield.



MET'MAP, your aeronautical weather chart ! - Copyright ORBIFLY December 2007 - Disclaimer

ORBIFLY MET'MAP TEAM :

Programming & Development : Alexandra Zaïnal
Concept & Development : Baudouin d'Aumeries
Co-Development & Prog : Marc-Olivier Méhu
Technical & hardware support : Manuel Goepfert

Contact : metmap@orbifly.com




SOURCES & CREDITS :

   NOAA